Time;durP1;ratioP1;P1;durP2;ratioP2;P2;SDS_P1;SDS_P2;PMS_P1;PMS_P2;Temp;Humidity;BMP_temperature;BMP_pressure;BME280_temperature;BME280_humidity;BME280_pressure;Samples;Min_cycle;Max_cycle;Signal;HPM_P1;HPM_P2
2022/05/12 00:01:01;;;;;;;3.78;1.30;;;14.10;99.90;;;;;;5089867;28;20510;-41
2022/05/12 00:03:27;;;;;;;2.47;1.10;;;14.00;99.90;;;;;;5086651;28;20491;-42
2022/05/12 00:05:52;;;;;;;3.00;0.90;;;14.00;99.90;;;;;;5085332;28;20012;-42
2022/05/12 00:08:18;;;;;;;4.68;1.00;;;13.90;99.90;;;;;;5093357;28;20363;-42
2022/05/12 00:10:43;;;;;;;5.25;1.15;;;13.90;99.90;;;;;;5096389;28;20098;-41
2022/05/12 00:13:09;;;;;;;3.80;1.10;;;13.90;99.90;;;;;;5103448;28;20023;-41
2022/05/12 00:15:36;;;;;;;3.50;0.90;;;13.80;99.90;;;;;;5094344;28;20024;-42
2022/05/12 00:18:06;;;;;;;4.20;1.00;;;13.80;99.90;;;;;;5104661;28;20085;-41
2022/05/12 00:20:34;;;;;;;2.58;1.00;;;13.70;99.90;;;;;;5093134;28;20027;-42
2022/05/12 00:23:15;;;;;;;2.97;1.02;;;13.70;99.90;;;;;;5105714;28;20442;-41
2022/05/12 00:25:42;;;;;;;4.13;1.08;;;13.60;99.90;;;;;;5093795;28;20433;-41
2022/05/12 00:28:08;;;;;;;2.22;0.88;;;13.60;99.90;;;;;;5085328;28;20017;-42
2022/05/12 00:30:34;;;;;;;2.75;1.00;;;13.60;99.90;;;;;;5097860;28;20546;-39
2022/05/12 00:33:00;;;;;;;6.15;1.42;;;13.50;99.90;;;;;;5084982;28;20020;-43
2022/05/12 00:35:26;;;;;;;3.40;1.20;;;13.50;99.90;;;;;;5098864;28;20028;-40
2022/05/12 00:37:51;;;;;;;2.60;1.02;;;13.50;99.90;;;;;;5089124;28;20028;-40
2022/05/12 00:40:17;;;;;;;3.85;1.13;;;13.40;99.90;;;;;;5099479;28;20652;-39
2022/05/12 00:43:04;;;;;;;2.38;1.00;;;13.40;99.90;;;;;;5090439;28;20385;-41
2022/05/12 00:45:35;;;;;;;6.00;1.23;;;13.40;99.90;;;;;;5099859;28;20184;-41
2022/05/12 00:48:00;;;;;;;6.82;1.40;;;13.40;99.90;;;;;;5088635;28;20534;-40
2022/05/12 00:50:31;;;;;;;3.20;0.98;;;13.40;99.90;;;;;;5097730;28;20066;-42
2022/05/12 00:53:00;;;;;;;6.18;1.65;;;13.30;99.90;;;;;;5091510;28;20126;-43
2022/05/12 00:55:31;;;;;;;4.35;1.13;;;13.30;99.90;;;;;;5095889;28;20055;-42
2022/05/12 00:58:00;;;;;;;4.40;1.33;;;13.20;99.90;;;;;;5092799;28;20112;-41
2022/05/12 01:00:25;;;;;;;3.33;0.90;;;13.20;99.90;;;;;;5094627;28;20012;-41
2022/05/12 01:02:57;;;;;;;5.05;1.25;;;13.20;99.90;;;;;;5093600;28;20048;-43
2022/05/12 01:05:24;;;;;;;3.47;1.13;;;13.10;99.90;;;;;;5102807;28;20136;-42
2022/05/12 01:07:55;;;;;;;4.53;0.98;;;13.10;99.90;;;;;;5101385;28;20032;-44
2022/05/12 01:10:20;;;;;;;4.50;1.23;;;13.10;99.90;;;;;;5105194;28;20050;-43
2022/05/12 01:12:48;;;;;;;4.25;1.02;;;13.00;99.90;;;;;;5098710;28;20530;-41
2022/05/12 01:15:17;;;;;;;4.38;1.10;;;13.00;99.90;;;;;;5106360;28;20019;-41
2022/05/12 01:17:43;;;;;;;2.22;1.10;;;13.00;99.90;;;;;;5096859;28;20049;-41
2022/05/12 01:20:10;;;;;;;3.05;0.90;;;13.00;99.90;;;;;;5107182;28;20385;-42
2022/05/12 01:22:44;;;;;;;3.03;0.93;;;13.00;99.90;;;;;;5096400;28;20047;-44
2022/05/12 01:25:15;;;;;;;2.35;1.02;;;13.00;99.90;;;;;;5107356;28;20512;-43
2022/05/12 01:27:44;;;;;;;4.82;1.17;;;12.90;99.90;;;;;;5095877;28;20024;-40
2022/05/12 01:30:13;;;;;;;3.63;0.98;;;12.90;99.90;;;;;;5087529;28;20020;-42
2022/05/12 01:32:39;;;;;;;4.28;1.20;;;12.90;99.90;;;;;;5100303;28;20032;-39
2022/05/12 01:35:06;;;;;;;3.72;1.05;;;12.80;99.90;;;;;;5088084;28;20058;-39
2022/05/12 01:37:36;;;;;;;3.78;1.20;;;12.80;99.90;;;;;;5099393;28;20115;-40
2022/05/12 01:40:03;;;;;;;3.60;1.30;;;12.70;99.90;;;;;;5087764;28;20047;-40
2022/05/12 01:42:29;;;;;;;3.03;0.90;;;12.70;99.90;;;;;;5099285;28;20035;-42
2022/05/12 01:44:54;;;;;;;3.05;1.10;;;12.70;99.90;;;;;;5088674;28;20024;-40
2022/05/12 01:47:20;;;;;;;2.45;0.93;;;12.60;99.90;;;;;;5096082;28;20035;-39
2022/05/12 01:49:47;;;;;;;3.20;1.02;;;12.60;99.90;;;;;;5090607;28;20035;-39
2022/05/12 01:52:12;;;;;;;3.92;1.15;;;12.50;99.90;;;;;;5093042;28;20042;-42
2022/05/12 01:54:38;;;;;;;4.45;1.48;;;12.40;99.90;;;;;;5092904;28;20027;-37
2022/05/12 01:57:04;;;;;;;5.80;1.17;;;12.40;99.90;;;;;;5092033;28;20282;-40
2022/05/12 01:59:30;;;;;;;2.40;1.08;;;12.40;99.90;;;;;;5094743;28;20032;-37
2022/05/12 02:01:56;;;;;;;6.95;1.55;;;12.40;99.90;;;;;;5088802;28;20046;-41
2022/05/12 02:04:21;;;;;;;1.77;0.93;;;12.30;99.90;;;;;;5105229;28;20700;-42
2022/05/12 02:06:48;;;;;;;4.47;1.30;;;12.30;99.90;;;;;;5105915;28;20470;-43
2022/05/12 02:09:13;;;;;;;3.10;1.40;;;12.30;99.90;;;;;;5095819;28;20613;-38
2022/05/12 02:11:39;;;;;;;2.58;1.20;;;12.30;99.90;;;;;;5106175;28;20031;-41
2022/05/12 02:14:06;;;;;;;7.68;1.70;;;12.20;99.90;;;;;;5095386;28;20027;-42
2022/05/12 02:16:33;;;;;;;4.50;1.40;;;12.20;99.90;;;;;;5107029;28;20028;-42
2022/05/12 02:19:00;;;;;;;4.50;1.70;;;12.20;99.90;;;;;;5094206;28;20078;-43
2022/05/12 02:21:25;;;;;;;5.80;1.48;;;12.10;99.90;;;;;;5107278;28;20051;-41
2022/05/12 02:23:51;;;;;;;3.55;1.50;;;12.10;99.90;;;;;;5095177;28;20059;-42
2022/05/12 02:26:17;;;;;;;6.22;1.55;;;12.10;99.90;;;;;;5105695;28;20479;-42
2022/05/12 02:28:42;;;;;;;2.67;1.13;;;12.10;99.90;;;;;;5097176;28;20039;-45
2022/05/12 02:31:08;;;;;;;3.70;1.30;;;12.10;99.90;;;;;;5103770;28;20031;-41
2022/05/12 02:33:33;;;;;;;3.38;1.50;;;12.10;99.90;;;;;;5098714;28;20028;-41
2022/05/12 02:35:59;;;;;;;3.47;1.67;;;12.10;99.90;;;;;;5101689;28;20026;-41
2022/05/12 02:38:24;;;;;;;3.95;1.50;;;12.10;99.90;;;;;;5102265;28;20031;-41
2022/05/12 02:40:53;;;;;;;4.78;1.40;;;12.10;99.90;;;;;;5097959;28;20023;-42
2022/05/12 02:43:24;;;;;;;4.65;1.70;;;12.10;99.90;;;;;;5092605;28;20039;-40
2022/05/12 02:45:57;;;;;;;4.10;1.60;;;12.00;99.90;;;;;;5096818;28;20028;-41
2022/05/12 02:48:29;;;;;;;5.18;1.70;;;12.00;99.90;;;;;;5086660;28;20832;-41
2022/05/12 02:50:56;;;;;;;2.55;1.65;;;12.00;99.90;;;;;;5085435;28;20124;-41
2022/05/12 02:53:22;;;;;;;5.85;1.80;;;12.00;99.90;;;;;;5105034;28;20024;-41
2022/05/12 02:55:47;;;;;;;3.80;1.88;;;12.00;99.90;;;;;;5094449;28;20028;-42
2022/05/12 02:58:14;;;;;;;7.63;2.60;;;12.00;99.90;;;;;;5106060;28;20071;-41
2022/05/12 03:00:39;;;;;;;4.28;2.03;;;12.00;99.90;;;;;;5093330;28;20087;-42
2022/05/12 03:03:07;;;;;;;7.95;2.20;;;11.90;99.90;;;;;;5106529;28;20143;-42
2022/05/12 03:05:33;;;;;;;4.25;2.28;;;12.00;99.90;;;;;;5097196;28;20020;-41
2022/05/12 03:07:59;;;;;;;6.05;2.38;;;11.90;99.90;;;;;;5085555;28;20467;-40
2022/05/12 03:10:24;;;;;;;5.68;2.78;;;11.90;99.90;;;;;;5097907;28;20020;-40
2022/05/12 03:12:51;;;;;;;4.15;2.30;;;11.90;99.90;;;;;;5086999;28;20074;-41
2022/05/12 03:15:19;;;;;;;4.53;2.80;;;11.90;99.90;;;;;;5094804;28;20027;-39
2022/05/12 03:17:45;;;;;;;6.20;3.10;;;11.90;99.90;;;;;;5088347;28;20111;-41
2022/05/12 03:20:15;;;;;;;7.00;3.95;;;11.90;99.90;;;;;;5093647;28;20127;-35
2022/05/12 03:22:41;;;;;;;4.75;2.90;;;11.90;99.90;;;;;;5089478;28;20097;-42
2022/05/12 03:25:09;;;;;;;6.15;3.08;;;11.90;99.90;;;;;;5090806;28;20027;-41
2022/05/12 03:27:35;;;;;;;7.47;3.28;;;11.90;99.90;;;;;;5092725;28;20126;-40
2022/05/12 03:30:01;;;;;;;6.35;3.10;;;11.90;99.90;;;;;;5087940;28;20217;-41
2022/05/12 03:32:27;;;;;;;5.30;3.30;;;11.90;99.90;;;;;;5095481;28;20527;-39
2022/05/12 03:34:52;;;;;;;4.32;3.33;;;11.90;99.90;;;;;;5087518;28;20020;-41
2022/05/12 03:37:18;;;;;;;6.07;3.22;;;11.90;99.90;;;;;;5096312;28;20512;-41
2022/05/12 03:39:44;;;;;;;6.07;3.53;;;11.90;99.90;;;;;;5087131;28;20115;-41
2022/05/12 03:42:12;;;;;;;5.70;3.45;;;11.90;99.90;;;;;;5096737;28;20380;-41
2022/05/12 03:44:49;;;;;;;6.68;3.85;;;11.80;99.90;;;;;;5084957;28;20024;-41
2022/05/12 03:47:27;;;;;;;6.40;3.50;;;11.80;99.90;;;;;;5093899;28;20059;-39
2022/05/12 03:50:14;;;;;;;6.38;3.20;;;11.80;99.90;;;;;;5105237;28;20020;-40
2022/05/12 03:52:40;;;;;;;6.82;4.13;;;11.80;99.90;;;;;;5093035;28;20028;-39
2022/05/12 03:55:10;;;;;;;7.55;3.60;;;11.80;99.90;;;;;;5085715;28;20023;-38
2022/05/12 03:57:35;;;;;;;7.75;3.70;;;11.80;99.90;;;;;;5095998;28;20077;-42
2022/05/12 04:00:01;;;;;;;5.70;3.28;;;11.80;99.90;;;;;;5085662;28;20020;-41
2022/05/12 04:02:26;;;;;;;6.78;3.63;;;11.90;99.90;;;;;;5097585;28;20032;-42
2022/05/12 04:04:52;;;;;;;9.45;3.70;;;11.90;99.90;;;;;;5098067;28;20406;-42
2022/05/12 04:07:20;;;;;;;7.28;3.42;;;11.90;99.90;;;;;;5093386;28;20058;-40
2022/05/12 04:09:47;;;;;;;4.97;3.20;;;11.90;99.90;;;;;;5105859;28;20078;-40
2022/05/12 04:12:13;;;;;;;5.70;3.58;;;11.90;99.90;;;;;;5098785;28;20115;-41
2022/05/12 04:14:40;;;;;;;6.88;3.38;;;11.90;99.90;;;;;;5106893;28;20114;-40
2022/05/12 04:17:13;;;;;;;4.38;3.15;;;11.90;99.90;;;;;;5101954;28;20084;-40
2022/05/12 04:19:39;;;;;;;7.40;3.50;;;11.80;99.90;;;;;;5104512;28;20360;-38
2022/05/12 04:22:04;;;;;;;7.65;4.00;;;11.80;99.90;;;;;;5103498;28;20060;-42
2022/05/12 04:24:30;;;;;;;8.18;4.32;;;11.80;99.90;;;;;;5102433;28;20502;-42
2022/05/12 04:26:56;;;;;;;5.07;3.50;;;11.80;99.90;;;;;;5105873;28;20039;-41
2022/05/12 04:29:21;;;;;;;5.70;3.60;;;11.90;99.90;;;;;;5099152;28;20032;-42
2022/05/12 04:31:47;;;;;;;5.65;3.20;;;11.90;99.90;;;;;;5107927;28;20016;-42
2022/05/12 04:36:57;;;;;;;6.90;3.50;;;11.90;99.90;;;;;;5107849;28;20505;-40
2022/05/12 04:39:22;;;;;;;6.35;3.33;;;11.90;99.90;;;;;;5097240;28;20027;-40
2022/05/12 04:41:48;;;;;;;5.22;3.45;;;11.80;99.90;;;;;;5107143;28;20036;-41
2022/05/12 04:44:14;;;;;;;4.22;3.17;;;11.80;99.90;;;;;;5097693;28;20440;-42
2022/05/12 04:46:41;;;;;;;6.30;3.35;;;11.80;99.90;;;;;;5108576;28;20031;-41
2022/05/12 04:49:08;;;;;;;4.85;3.10;;;11.80;99.90;;;;;;5096094;28;20019;-39
2022/05/12 04:51:34;;;;;;;6.20;3.60;;;11.90;99.90;;;;;;5108211;28;20030;-39
2022/05/12 04:54:00;;;;;;;7.65;3.35;;;11.90;99.90;;;;;;5095311;28;20024;-41
2022/05/12 04:56:26;;;;;;;5.25;3.20;;;12.00;99.90;;;;;;5102058;28;20052;-40
2022/05/12 04:58:52;;;;;;;4.70;3.60;;;11.90;99.90;;;;;;5099305;28;20030;-39
2022/05/12 05:01:18;;;;;;;6.15;3.25;;;12.00;99.90;;;;;;5086340;28;20473;-43
2022/05/12 05:03:43;;;;;;;7.35;3.95;;;12.00;99.90;;;;;;5091914;28;20044;-41
2022/05/12 05:06:10;;;;;;;4.95;3.17;;;12.00;99.90;;;;;;5087653;28;20020;-42
2022/05/12 05:08:36;;;;;;;5.30;3.22;;;12.00;99.90;;;;;;5091022;28;20028;-42
2022/05/12 05:11:03;;;;;;;4.40;2.83;;;12.10;99.90;;;;;;5100445;28;20028;-41
2022/05/12 05:13:29;;;;;;;4.05;2.80;;;12.10;99.90;;;;;;5104339;28;20027;-43
2022/05/12 05:15:55;;;;;;;5.03;2.95;;;12.20;99.90;;;;;;5097311;28;20417;-42
2022/05/12 05:18:22;;;;;;;4.68;2.70;;;12.10;99.90;;;;;;5106544;28;20049;-42
2022/05/12 05:20:48;;;;;;;4.75;2.90;;;12.10;99.90;;;;;;5095432;28;20015;-41
2022/05/12 05:23:15;;;;;;;4.43;3.17;;;12.10;99.90;;;;;;5104313;28;20046;-41
2022/05/12 05:25:42;;;;;;;5.10;3.10;;;12.10;99.90;;;;;;5095931;28;20019;-41
2022/05/12 05:28:09;;;;;;;6.57;3.00;;;12.10;99.90;;;;;;5107183;28;20036;-40
2022/05/12 05:30:34;;;;;;;6.15;3.17;;;12.10;99.90;;;;;;5098483;28;20059;-41
2022/05/12 05:33:00;;;;;;;6.93;2.53;;;12.20;99.90;;;;;;5088288;28;20036;-41
2022/05/12 05:35:26;;;;;;;4.07;2.30;;;12.20;99.90;;;;;;5098898;28;20467;-42
2022/05/12 05:37:53;;;;;;;4.05;2.60;;;12.20;99.90;;;;;;5088020;28;20035;-41
2022/05/12 05:40:21;;;;;;;5.60;2.58;;;12.30;99.90;;;;;;5098416;28;20051;-42
2022/05/12 05:42:47;;;;;;;5.15;2.70;;;12.30;99.90;;;;;;5087221;28;20044;-42
2022/05/12 05:45:16;;;;;;;4.32;2.75;;;12.30;99.90;;;;;;5096087;28;20686;-42
2022/05/12 05:47:48;;;;;;;4.53;2.78;;;12.30;99.90;;;;;;5090541;28;20041;-41
2022/05/12 05:50:19;;;;;;;3.67;2.20;;;12.40;99.90;;;;;;5093975;28;20431;-42
2022/05/12 05:55:29;;;;;;;3.03;2.33;;;12.50;99.90;;;;;;5095488;28;20554;-42
2022/05/12 05:58:02;;;;;;;4.00;2.50;;;12.50;99.90;;;;;;5091134;28;20119;-41
2022/05/12 06:00:29;;;;;;;4.70;3.05;;;12.50;99.90;;;;;;5093309;28;20075;-42
2022/05/12 06:02:55;;;;;;;3.92;2.90;;;12.60;99.90;;;;;;5092899;28;20040;-40
2022/05/12 06:05:21;;;;;;;3.63;2.03;;;12.70;99.90;;;;;;5090835;28;20033;-42
2022/05/12 06:07:47;;;;;;;5.72;3.20;;;12.70;99.90;;;;;;5094889;28;20053;-42
2022/05/12 06:10:13;;;;;;;4.68;3.08;;;12.80;99.90;;;;;;5088696;28;20758;-41
2022/05/12 06:12:38;;;;;;;4.13;2.95;;;12.80;99.90;;;;;;5096881;28;20027;-41
2022/05/12 06:15:05;;;;;;;5.03;3.15;;;12.90;99.90;;;;;;5088194;28;20118;-42
2022/05/12 06:17:30;;;;;;;6.90;3.22;;;12.90;99.90;;;;;;5097278;28;20454;-42
2022/05/12 06:19:57;;;;;;;4.70;3.72;;;13.00;99.90;;;;;;5087026;28;20016;-40
2022/05/12 06:22:23;;;;;;;4.22;2.90;;;13.00;99.90;;;;;;5098530;28;20115;-41
2022/05/12 06:24:49;;;;;;;6.32;3.60;;;13.10;99.90;;;;;;5085558;28;20452;-40
2022/05/12 06:27:16;;;;;;;6.18;3.83;;;13.10;99.90;;;;;;5099281;28;20081;-41
2022/05/12 06:29:44;;;;;;;6.75;3.58;;;13.20;99.90;;;;;;5086519;28;20505;-41
2022/05/12 06:32:10;;;;;;;5.35;3.60;;;13.20;99.90;;;;;;5098000;28;20099;-41
2022/05/12 06:34:36;;;;;;;6.32;4.00;;;13.30;99.90;;;;;;5086216;28;20031;-42
2022/05/12 06:37:03;;;;;;;4.70;3.55;;;13.40;99.90;;;;;;5096422;28;20020;-41
2022/05/12 06:39:30;;;;;;;5.30;4.03;;;13.40;99.90;;;;;;5087996;28;20036;-39
2022/05/12 06:41:55;;;;;;;7.07;3.35;;;13.40;99.90;;;;;;5094253;28;20109;-40
2022/05/12 06:44:21;;;;;;;5.10;3.15;;;13.50;99.90;;;;;;5091660;28;20464;-43
2022/05/12 06:46:46;;;;;;;5.43;3.20;;;13.60;99.90;;;;;;5090135;28;20080;-40
2022/05/12 06:49:12;;;;;;;10.65;3.50;;;13.60;99.90;;;;;;5094617;28;20107;-41
2022/05/12 06:51:39;;;;;;;7.57;3.13;;;13.60;99.90;;;;;;5088319;28;20833;-41
2022/05/12 06:54:05;;;;;;;5.82;3.03;;;13.70;99.90;;;;;;5096308;28;20020;-41
2022/05/12 06:56:30;;;;;;;5.53;3.20;;;13.80;99.90;;;;;;5086558;28;20038;-39
2022/05/12 06:58:56;;;;;;;4.35;3.10;;;13.80;99.90;;;;;;5097772;28;20020;-42
2022/05/12 07:01:22;;;;;;;8.40;2.95;;;13.80;99.90;;;;;;5085770;28;20034;-44
2022/05/12 07:03:48;;;;;;;5.25;3.28;;;13.90;99.90;;;;;;5100037;28;20052;-42
2022/05/12 07:06:14;;;;;;;5.45;3.20;;;13.90;99.90;;;;;;5106962;28;20112;-42
2022/05/12 07:08:41;;;;;;;7.78;2.92;;;14.00;99.90;;;;;;5092611;28;20028;-46
2022/05/12 07:11:10;;;;;;;5.72;2.40;;;14.00;99.90;;;;;;5106280;28;20486;-42
2022/05/12 07:13:36;;;;;;;6.00;2.50;;;14.10;99.90;;;;;;5092931;28;20036;-41
2022/05/12 07:16:03;;;;;;;6.40;2.40;;;14.10;99.90;;;;;;5085426;28;20069;-42
2022/05/12 07:18:29;;;;;;;5.10;2.47;;;14.20;99.90;;;;;;5095942;28;20093;-41
2022/05/12 07:26:39;;;;;;;4.70;2.40;;;14.20;99.90;;;;;;5065203;28;20495;-41
2022/05/12 07:29:09;;;;;;;3.45;1.73;;;14.30;99.90;;;;;;5094013;28;20092;-41
2022/05/12 07:31:35;;;;;;;9.07;2.83;;;14.30;99.90;;;;;;5063721;28;20020;-42
2022/05/12 07:34:00;;;;;;;3.70;2.65;;;14.40;99.90;;;;;;5090535;28;20027;-45
2022/05/12 07:36:36;;;;;;;3.38;1.80;;;14.50;99.90;;;;;;5086923;28;20024;-39
2022/05/12 07:39:02;;;;;;;4.80;2.28;;;14.50;99.90;;;;;;5095103;28;20032;-40
2022/05/12 07:41:28;;;;;;;4.32;2.42;;;14.50;99.90;;;;;;5088815;28;20055;-41
2022/05/12 07:43:54;;;;;;;4.20;2.00;;;14.50;99.90;;;;;;5091549;28;20032;-39
2022/05/12 07:46:24;;;;;;;5.50;2.65;;;14.60;99.90;;;;;;5095229;28;20032;-43
2022/05/12 07:48:50;;;;;;;5.63;2.47;;;14.80;99.90;;;;;;5094421;28;20023;-42
2022/05/12 07:51:17;;;;;;;3.85;2.63;;;14.80;99.90;;;;;;5097891;28;20027;-40
2022/05/12 07:53:46;;;;;;;5.40;2.90;;;14.90;99.90;;;;;;5091600;28;20102;-41
2022/05/12 07:56:12;;;;;;;4.93;2.83;;;15.00;99.90;;;;;;5099694;28;20028;-41
2022/05/12 07:58:38;;;;;;;3.85;2.38;;;15.10;99.90;;;;;;5091049;28;20055;-41
2022/05/12 08:01:03;;;;;;;7.55;3.10;;;15.10;99.90;;;;;;5101066;28;20506;-43
2022/05/12 08:03:29;;;;;;;4.80;2.35;;;15.20;99.90;;;;;;5089610;28;20082;-41
2022/05/12 08:05:55;;;;;;;4.10;2.10;;;15.30;99.90;;;;;;5101342;28;20087;-40
2022/05/12 08:08:20;;;;;;;4.95;2.22;;;15.40;99.90;;;;;;5089422;28;20032;-41
2022/05/12 08:10:46;;;;;;;3.90;1.95;;;15.50;99.90;;;;;;5101259;28;20027;-41
2022/05/12 08:13:16;;;;;;;4.85;2.20;;;15.50;99.90;;;;;;5089654;28;20207;-43
2022/05/12 08:15:42;;;;;;;3.45;2.03;;;15.60;99.90;;;;;;5101810;28;20462;-41
2022/05/12 08:18:08;;;;;;;5.45;2.75;;;15.60;99.90;;;;;;5089263;28;20070;-42
2022/05/12 08:20:34;;;;;;;4.68;2.50;;;15.60;99.90;;;;;;5099100;28;20400;-41
2022/05/12 08:23:00;;;;;;;4.10;2.03;;;15.60;99.90;;;;;;5091098;28;20075;-42
2022/05/12 08:25:26;;;;;;;4.40;2.35;;;15.60;99.90;;;;;;5095982;28;20067;-42
2022/05/12 08:27:51;;;;;;;4.07;2.17;;;15.60;99.90;;;;;;5094391;28;20031;-42
2022/05/12 08:30:17;;;;;;;4.90;2.20;;;15.70;99.80;;;;;;5094165;28;20044;-42
2022/05/12 08:32:43;;;;;;;4.38;2.40;;;15.60;99.50;;;;;;5096455;28;20016;-42
2022/05/12 08:35:10;;;;;;;3.38;1.67;;;15.70;99.40;;;;;;5091514;28;20020;-42
2022/05/12 08:37:37;;;;;;;3.47;1.92;;;15.70;99.50;;;;;;5098418;28;20032;-41
2022/05/12 08:40:04;;;;;;;3.30;2.00;;;15.70;99.30;;;;;;5090013;28;20023;-40
2022/05/12 08:42:41;;;;;;;3.03;2.15;;;15.80;98.90;;;;;;5099635;28;20055;-42
2022/05/12 08:45:09;;;;;;;3.85;2.00;;;15.80;98.50;;;;;;5089854;28;20027;-42
2022/05/12 08:47:47;;;;;;;2.53;2.00;;;15.90;98.10;;;;;;5100087;28;20019;-41
2022/05/12 08:50:25;;;;;;;3.65;1.33;;;15.90;98.00;;;;;;5090154;28;20027;-42
2022/05/12 08:53:01;;;;;;;5.40;1.80;;;15.90;98.10;;;;;;5099888;28;20038;-42
2022/05/12 08:55:40;;;;;;;3.60;1.70;;;15.90;98.00;;;;;;5089238;28;20026;-41
2022/05/12 08:58:17;;;;;;;5.65;2.20;;;16.00;97.50;;;;;;5099867;28;20032;-41
2022/05/12 09:00:47;;;;;;;3.30;1.90;;;16.10;97.50;;;;;;5089136;28;20838;-41
2022/05/12 09:03:34;;;;;;;4.10;2.00;;;16.20;97.40;;;;;;5099418;28;20055;-41
2022/05/12 09:06:03;;;;;;;3.75;2.10;;;16.20;97.00;;;;;;5106239;28;20016;-41
2022/05/12 09:08:38;;;;;;;3.78;1.75;;;16.30;96.80;;;;;;5085287;28;20012;-42
2022/05/12 09:11:06;;;;;;;3.15;1.40;;;16.30;96.60;;;;;;5107383;28;20016;-42
2022/05/12 09:13:46;;;;;;;3.00;1.80;;;16.30;96.60;;;;;;5096566;28;20020;-42
2022/05/12 09:16:19;;;;;;;3.47;1.60;;;16.30;96.20;;;;;;5107246;28;20040;-37
2022/05/12 09:18:45;;;;;;;3.65;1.70;;;16.30;96.20;;;;;;5096911;28;20020;-39
2022/05/12 09:21:14;;;;;;;2.80;1.30;;;16.40;96.00;;;;;;5106609;28;20107;-41
2022/05/12 09:23:40;;;;;;;3.03;1.60;;;16.60;96.10;;;;;;5096413;28;20059;-40
2022/05/12 09:26:33;;;;;;;3.15;1.75;;;16.70;95.70;;;;;;5107990;28;20119;-42
2022/05/12 09:29:20;;;;;;;3.70;1.80;;;16.80;95.30;;;;;;5096098;28;20030;-41
2022/05/12 09:31:49;;;;;;;2.88;1.60;;;16.90;95.10;;;;;;5106290;28;20487;-43
2022/05/12 09:34:23;;;;;;;3.13;1.70;;;17.10;94.90;;;;;;5096331;28;20130;-40
2022/05/12 09:36:49;;;;;;;1.73;1.30;;;17.20;94.80;;;;;;5106652;28;20028;-41
2022/05/12 09:39:35;;;;;;;5.40;1.50;;;17.30;94.20;;;;;;5096080;28;20124;-41
2022/05/12 09:42:02;;;;;;;3.15;1.58;;;17.40;94.00;;;;;;5105967;28;20059;-41
2022/05/12 09:44:31;;;;;;;2.95;1.30;;;17.60;93.50;;;;;;5096026;28;20073;-40
2022/05/12 09:47:06;;;;;;;1.70;1.20;;;17.70;93.40;;;;;;5106742;28;20024;-41
2022/05/12 09:49:35;;;;;;;1.98;1.10;;;17.80;93.00;;;;;;5095286;28;20760;-41
2022/05/12 09:52:28;;;;;;;3.17;1.20;;;17.90;93.10;;;;;;5087833;28;20023;-42
2022/05/12 09:55:32;;;;;;;1.95;1.10;;;17.90;92.80;;;;;;5098406;28;20047;-41
2022/05/12 09:57:59;;;;;;;4.20;1.15;;;17.90;92.60;;;;;;5090484;28;20028;-41
2022/05/12 10:00:31;;;;;;;1.55;0.80;;;17.80;92.50;;;;;;5096035;28;20455;-42
2022/05/12 10:09:24;;;;;;;2.60;1.23;;;17.70;92.00;;;;;;5098965;28;20078;-40
2022/05/12 10:12:11;;;;;;;2.40;1.38;;;17.70;91.50;;;;;;5106594;28;20049;-43
2022/05/12 10:15:00;;;;;;;2.25;1.23;;;17.70;91.60;;;;;;5094037;28;20063;-41
2022/05/12 10:17:34;;;;;;;2.00;0.77;;;17.80;90.00;;;;;;5065621;28;20028;-43
2022/05/12 10:20:08;;;;;;;1.67;0.95;;;17.80;90.60;;;;;;5098269;28;20035;-42
2022/05/12 10:22:51;;;;;;;1.50;0.60;;;17.90;90.30;;;;;;5087062;28;20052;-43
2022/05/12 10:25:47;;;;;;;1.80;1.35;;;18.00;90.40;;;;;;5098873;28;20020;-41
2022/05/12 10:28:19;;;;;;;2.17;0.70;;;18.20;90.00;;;;;;5086905;28;20020;-39
2022/05/12 10:31:00;;;;;;;1.85;0.63;;;18.30;89.20;;;;;;5097346;28;20051;-41
2022/05/12 10:33:43;;;;;;;2.67;1.10;;;18.40;88.70;;;;;;5086935;28;20032;-44
2022/05/12 10:36:40;;;;;;;2.97;1.00;;;18.50;88.00;;;;;;5096620;28;20027;-41
2022/05/12 10:39:24;;;;;;;1.92;0.90;;;18.70;87.50;;;;;;5087621;28;20024;-41
2022/05/12 10:42:13;;;;;;;1.10;0.98;;;18.90;86.10;;;;;;5089046;28;20502;-43
2022/05/12 10:45:02;;;;;;;1.55;0.80;;;18.90;85.80;;;;;;5102357;28;20467;-41
2022/05/12 10:47:27;;;;;;;2.58;0.90;;;18.90;85.70;;;;;;5101054;28;20143;-42
2022/05/12 10:50:18;;;;;;;2.42;1.08;;;18.90;85.60;;;;;;5102314;28;20110;-42
2022/05/12 10:52:49;;;;;;;2.00;1.00;;;19.00;85.50;;;;;;5101029;28;20040;-39
2022/05/12 10:55:49;;;;;;;2.92;1.35;;;19.00;84.10;;;;;;5099858;28;20463;-41
2022/05/12 10:58:29;;;;;;;2.60;1.08;;;18.80;82.70;;;;;;5086590;28;20115;-41
2022/05/12 11:01:25;;;;;;;1.83;0.82;;;18.70;83.50;;;;;;5095099;28;20040;-41
2022/05/12 11:04:31;;;;;;;2.35;1.00;;;18.60;83.60;;;;;;5066388;28;20052;-41
2022/05/12 11:07:13;;;;;;;2.60;1.30;;;18.60;82.10;;;;;;5002296;28;20045;-41
2022/05/12 11:09:44;;;;;;;1.58;0.90;;;18.40;82.70;;;;;;5081389;28;20036;-42
2022/05/12 11:12:26;;;;;;;1.83;0.98;;;18.40;83.10;;;;;;5093940;28;20835;-42
2022/05/12 11:15:05;;;;;;;1.55;0.80;;;18.40;83.50;;;;;;5087297;28;20032;-40
2022/05/12 11:17:42;;;;;;;1.20;0.77;;;18.40;83.60;;;;;;5094642;28;20043;-40
2022/05/12 11:20:18;;;;;;;1.30;0.60;;;18.40;83.40;;;;;;5085948;28;20028;-42
2022/05/12 11:23:19;;;;;;;4.63;1.40;;;18.40;83.50;;;;;;5097225;28;20028;-41
2022/05/12 11:26:00;;;;;;;2.95;1.00;;;18.40;81.90;;;;;;5087180;28;20047;-41
2022/05/12 11:31:29;;;;;;;2.40;0.80;;;18.40;82.10;;;;;;5090501;28;20043;-42
2022/05/12 11:34:01;;;;;;;1.65;0.70;;;18.40;81.80;;;;;;5091881;28;20032;-39
2022/05/12 11:36:40;;;;;;;;;;;18.40;82.10;;;;;;5090081;28;20027;-41
2022/05/12 11:39:39;;;;;;;2.65;1.00;;;18.50;81.50;;;;;;5091894;28;19931;-42
2022/05/12 11:42:18;;;;;;;2.50;0.90;;;18.50;80.60;;;;;;5093602;28;20042;-41
2022/05/12 11:45:01;;;;;;;1.73;0.70;;;18.50;80.90;;;;;;5087731;28;20533;-42
2022/05/12 11:47:46;;;;;;;;;;;18.50;80.40;;;;;;5095597;28;20096;-42
2022/05/12 11:50:45;;;;;;;1.35;0.70;;;18.60;80.60;;;;;;5064780;28;19908;-42
2022/05/12 11:53:35;;;;;;;2.08;0.88;;;18.60;80.30;;;;;;5097156;28;20055;-42
2022/05/12 11:56:09;;;;;;;1.30;0.80;;;18.60;79.20;;;;;;5083415;28;20036;-41
2022/05/12 11:58:40;;;;;;;2.20;0.88;;;18.70;79.40;;;;;;5091826;28;20024;-42
2022/05/12 12:01:09;;;;;;;2.92;1.23;;;18.70;79.40;;;;;;5106046;28;20047;-42
2022/05/12 12:03:45;;;;;;;1.95;1.20;;;18.80;79.10;;;;;;5091902;28;20144;-42
2022/05/12 12:06:11;;;;;;;1.08;0.70;;;18.90;78.30;;;;;;5087819;28;20059;-42
2022/05/12 12:08:38;;;;;;;3.05;1.00;;;19.00;78.70;;;;;;5098132;28;20435;-42
2022/05/12 12:11:22;;;;;;;1.73;0.82;;;19.10;78.30;;;;;;5085770;28;20027;-41
2022/05/12 12:13:54;;;;;;;1.70;0.90;;;19.30;77.80;;;;;;5097380;28;20084;-43
2022/05/12 12:16:45;;;;;;;1.98;0.60;;;19.40;77.20;;;;;;5084532;28;20028;-43
2022/05/12 12:19:41;;;;;;;1.75;0.80;;;19.50;77.00;;;;;;5097547;28;20388;-43
2022/05/12 12:22:27;;;;;;;1.42;0.60;;;19.70;75.80;;;;;;5086213;28;20074;-43
2022/05/12 12:25:02;;;;;;;2.50;0.57;;;19.80;76.30;;;;;;5094668;28;20032;-42
2022/05/12 12:27:31;;;;;;;1.33;0.80;;;19.90;75.30;;;;;;5086036;28;20051;-43
2022/05/12 12:30:36;;;;;;;1.33;0.57;;;19.90;74.30;;;;;;5097174;28;20024;-42
2022/05/12 12:33:13;;;;;;;2.60;0.70;;;19.90;74.70;;;;;;5091517;28;20360;-41
2022/05/12 12:36:17;;;;;;;2.28;1.02;;;20.00;74.70;;;;;;5098154;28;20406;-42
2022/05/12 12:38:48;;;;;;;2.50;0.82;;;20.00;73.10;;;;;;5078900;28;20142;-41
2022/05/12 12:41:29;;;;;;;3.97;0.70;;;20.10;72.60;;;;;;5094237;28;20032;-42
2022/05/12 12:44:05;;;;;;;2.25;0.82;;;20.10;72.90;;;;;;5095181;28;20067;-42
2022/05/12 12:46:45;;;;;;;2.28;0.80;;;20.10;72.90;;;;;;5092722;28;20024;-42
2022/05/12 12:49:20;;;;;;;1.48;0.75;;;20.00;71.80;;;;;;5095980;28;20538;-42
2022/05/12 12:51:57;;;;;;;1.95;0.95;;;20.10;71.90;;;;;;5091764;28;20032;-42
2022/05/12 12:57:15;;;;;;;1.80;0.80;;;20.00;70.90;;;;;;5091624;28;20121;-41
2022/05/12 12:59:46;;;;;;;1.17;0.80;;;19.90;71.20;;;;;;5096246;28;20018;-42
2022/05/12 13:02:24;;;;;;;0.90;0.60;;;19.90;71.00;;;;;;5091956;28;20072;-41
2022/05/12 13:04:55;;;;;;;1.45;0.70;;;19.80;71.40;;;;;;5090550;28;20054;-42
2022/05/12 13:07:27;;;;;;;2.28;0.70;;;19.90;71.50;;;;;;5087596;28;20114;-42
2022/05/12 13:09:54;;;;;;;2.22;0.90;;;19.90;71.00;;;;;;5095125;28;20569;-41
2022/05/12 13:12:22;;;;;;;1.90;0.80;;;19.90;69.90;;;;;;5103447;28;20147;-41
2022/05/12 13:14:51;;;;;;;2.00;0.73;;;19.90;69.10;;;;;;5103143;28;20023;-43
2022/05/12 13:17:38;;;;;;;2.47;0.70;;;20.00;69.60;;;;;;5101334;28;20024;-42
2022/05/12 13:20:14;;;;;;;1.92;0.77;;;20.10;69.50;;;;;;5101665;28;20051;-41
2022/05/12 13:22:44;;;;;;;2.72;0.93;;;20.30;69.60;;;;;;5103133;28;20043;-42
2022/05/12 13:25:13;;;;;;;3.63;0.80;;;20.40;68.30;;;;;;5102983;28;20020;-41
2022/05/12 13:27:41;;;;;;;2.00;0.90;;;20.40;68.30;;;;;;5100284;28;21020;-42
2022/05/12 13:30:15;;;;;;;1.73;0.73;;;20.30;67.40;;;;;;5104916;28;20543;-43